createdAt,value
2022-10-09T00:00:00.387Z,23.98
2022-10-09T00:03:03.113Z,22.40
2022-10-09T00:06:08.203Z,21.70
2022-10-09T00:09:11.918Z,22.13
2022-10-09T00:12:15.734Z,22.43
2022-10-09T00:15:18.297Z,21.55
2022-10-09T00:18:21.909Z,20.80
2022-10-09T00:21:28.462Z,20.65
2022-10-09T00:24:32.858Z,21.90
2022-10-09T00:27:36.340Z,20.80
2022-10-09T00:30:39.739Z,21.70
2022-10-09T00:33:42.382Z,20.70
2022-10-09T00:36:44.973Z,21.30
2022-10-09T00:39:48.321Z,21.37
2022-10-09T00:42:57.159Z,20.90
2022-10-09T00:45:59.653Z,21.48
2022-10-09T00:49:07.986Z,20.85
2022-10-09T00:52:11.857Z,21.10
2022-10-09T00:55:15.190Z,21.83
2022-10-09T00:58:17.855Z,20.60
2022-10-09T01:01:23.072Z,20.30
2022-10-09T01:04:25.799Z,19.60
2022-10-09T01:07:49.268Z,19.75
2022-10-09T01:11:02.070Z,20.83
2022-10-09T01:14:18.182Z,21.47
2022-10-09T01:17:33.272Z,20.35
2022-10-09T01:20:43.132Z,19.65
2022-10-09T01:23:46.301Z,20.48
2022-10-09T01:27:15.905Z,20.40
2022-10-09T01:30:19.602Z,20.27
2022-10-09T01:33:22.880Z,19.80
2022-10-09T01:36:26.052Z,20.30
2022-10-09T01:39:31.682Z,19.45
2022-10-09T01:42:34.944Z,19.13
2022-10-09T01:45:41.259Z,18.10
2022-10-09T01:48:47.796Z,19.15
2022-10-09T01:52:08.438Z,19.08
2022-10-09T01:55:31.060Z,21.38
2022-10-09T01:58:55.017Z,21.27
2022-10-09T02:02:00.318Z,20.90
2022-10-09T02:05:04.701Z,23.10
2022-10-09T02:08:07.896Z,23.90
2022-10-09T02:11:14.891Z,22.63
2022-10-09T02:14:18.263Z,23.67
2022-10-09T02:17:26.262Z,22.33
2022-10-09T02:20:33.100Z,23.10
2022-10-09T02:23:38.340Z,22.42
2022-10-09T02:26:42.313Z,23.98
2022-10-09T02:29:46.664Z,23.67
2022-10-09T02:32:53.478Z,23.00
2022-10-09T02:35:56.094Z,23.08
2022-10-09T02:38:59.090Z,23.63
2022-10-09T02:42:02.122Z,24.02
2022-10-09T02:45:05.036Z,23.63
2022-10-09T02:48:08.644Z,22.60
2022-10-09T02:51:12.321Z,24.05
2022-10-09T02:54:14.781Z,24.35
2022-10-09T02:57:17.244Z,24.48
2022-10-09T03:00:20.276Z,24.80
2022-10-09T03:03:23.108Z,25.47
2022-10-09T03:06:29.377Z,25.02
2022-10-09T03:09:33.878Z,25.48
2022-10-09T03:12:36.500Z,25.02
2022-10-09T03:15:40.178Z,25.57
2022-10-09T03:18:44.126Z,24.60
2022-10-09T03:21:46.617Z,27.42
2022-10-09T03:24:49.957Z,26.98
2022-10-09T03:27:52.517Z,27.35
2022-10-09T03:30:55.686Z,29.20
2022-10-09T03:33:59.613Z,29.03
2022-10-09T03:37:02.123Z,30.52
2022-10-09T03:40:06.018Z,29.40
2022-10-09T03:43:08.811Z,31.23
2022-10-09T03:46:12.228Z,31.00
2022-10-09T03:49:16.499Z,29.87
2022-10-09T03:52:19.526Z,29.95
2022-10-09T03:55:22.138Z,29.77
2022-10-09T03:58:24.992Z,31.17
2022-10-09T04:01:28.104Z,31.10
2022-10-09T04:04:30.665Z,30.17
2022-10-09T04:07:34.732Z,32.78
2022-10-09T04:10:41.546Z,32.00
2022-10-09T04:13:45.089Z,32.30
2022-10-09T04:16:47.688Z,34.30
2022-10-09T04:19:51.086Z,33.03
2022-10-09T04:22:54.311Z,33.35
2022-10-09T04:25:59.654Z,35.17
2022-10-09T04:29:03.077Z,34.85
2022-10-09T04:32:06.296Z,35.53
2022-10-09T04:35:09.452Z,34.10
2022-10-09T04:38:12.243Z,36.17
2022-10-09T04:41:14.796Z,35.63
2022-10-09T04:44:17.509Z,35.67
2022-10-09T04:47:20.690Z,34.90
2022-10-09T04:50:23.394Z,34.90
2022-10-09T04:53:35.701Z,34.17
2022-10-09T04:56:38.397Z,30.25
2022-10-09T04:59:41.013Z,27.80
2022-10-09T05:02:44.653Z,28.00
2022-10-09T05:05:47.720Z,26.53
2022-10-09T05:08:51.876Z,26.92
2022-10-09T05:11:54.316Z,27.90
2022-10-09T05:14:58.688Z,26.85
2022-10-09T05:18:01.252Z,29.07
2022-10-09T05:21:05.931Z,26.93
2022-10-09T05:24:10.502Z,29.15
2022-10-09T05:27:14.157Z,30.60
2022-10-09T05:30:16.687Z,29.33
2022-10-09T05:33:20.934Z,30.97
2022-10-09T05:36:24.268Z,30.17
2022-10-09T05:39:26.786Z,30.65
2022-10-09T05:42:30.747Z,30.95
2022-10-09T05:45:33.404Z,29.88
2022-10-09T05:48:37.724Z,29.27
2022-10-09T05:51:44.560Z,28.57
2022-10-09T05:54:47.699Z,29.85
2022-10-09T05:57:50.747Z,29.02
2022-10-09T06:00:53.295Z,29.95
2022-10-09T06:03:57.689Z,29.33
2022-10-09T06:07:00.253Z,30.37
2022-10-09T06:10:05.072Z,29.02
2022-10-09T06:13:08.188Z,28.90
2022-10-09T06:16:13.575Z,28.88
2022-10-09T06:19:18.527Z,28.80
2022-10-09T06:22:21.356Z,28.53
2022-10-09T06:25:23.878Z,29.08
2022-10-09T06:28:28.992Z,28.65
2022-10-09T06:31:33.038Z,27.88
2022-10-09T06:34:36.250Z,28.67
2022-10-09T06:37:38.826Z,27.07
2022-10-09T06:40:42.234Z,25.25
2022-10-09T06:43:50.915Z,25.95
2022-10-09T06:46:54.244Z,24.95
2022-10-09T06:49:57.299Z,24.50
2022-10-09T06:53:00.726Z,23.67
2022-10-09T06:56:04.491Z,22.77
2022-10-09T06:59:07.675Z,22.95
2022-10-09T07:02:10.214Z,22.58
2022-10-09T07:05:13.355Z,21.47
2022-10-09T07:08:15.830Z,20.47
2022-10-09T07:11:22.707Z,20.55
2022-10-09T07:14:26.802Z,21.10
2022-10-09T07:17:29.418Z,19.35
2022-10-09T07:20:36.297Z,18.37
2022-10-09T07:23:39.925Z,18.27
2022-10-09T07:26:45.480Z,17.75
2022-10-09T07:29:48.946Z,16.52
2022-10-09T07:32:52.192Z,17.08
2022-10-09T07:35:56.636Z,15.70
2022-10-09T07:39:00.551Z,16.83
2022-10-09T07:42:04.197Z,16.73
2022-10-09T07:45:07.710Z,16.58
2022-10-09T07:48:10.250Z,16.42
2022-10-09T07:51:34.526Z,15.17
2022-10-09T07:54:37.857Z,15.67
2022-10-09T07:57:40.360Z,15.45
2022-10-09T08:00:44.516Z,14.38
2022-10-09T08:03:48.228Z,14.57
2022-10-09T08:06:50.700Z,12.80
2022-10-09T08:09:53.141Z,13.50
2022-10-09T08:12:55.633Z,13.82
2022-10-09T08:15:59.626Z,13.43
2022-10-09T08:19:03.367Z,14.00
2022-10-09T08:22:05.798Z,13.27
2022-10-09T08:25:09.124Z,14.30
2022-10-09T08:28:11.823Z,13.48
2022-10-09T08:31:17.245Z,13.35
2022-10-09T08:34:20.058Z,13.32
2022-10-09T08:37:22.592Z,13.30
2022-10-09T08:40:45.629Z,12.03
2022-10-09T08:43:56.532Z,10.50
2022-10-09T08:47:36.758Z,10.80
2022-10-09T08:50:47.451Z,10.30
2022-10-09T08:53:56.270Z,11.20
2022-10-09T08:57:03.138Z,9.33
2022-10-09T09:00:17.489Z,8.85
2022-10-09T09:03:40.388Z,8.25
2022-10-09T09:07:15.802Z,8.05
2022-10-09T09:10:38.326Z,7.20
2022-10-09T09:13:59.969Z,7.10
2022-10-09T09:17:19.132Z,7.22
2022-10-09T09:20:36.141Z,7.35
2022-10-09T09:23:42.692Z,7.95
2022-10-09T09:26:51.757Z,7.83
2022-10-09T09:29:58.630Z,7.93
2022-10-09T09:33:12.175Z,8.38
2022-10-09T09:36:40.754Z,9.25
2022-10-09T09:43:18.458Z,8.10
2022-10-09T09:46:26.018Z,8.90
2022-10-09T09:49:30.086Z,8.45
2022-10-09T09:52:42.158Z,7.55
2022-10-09T09:55:45.886Z,8.32
2022-10-09T09:58:51.264Z,8.23
2022-10-09T10:02:13.330Z,8.03
2022-10-09T10:05:21.540Z,7.95
2022-10-09T10:08:29.929Z,8.40
2022-10-09T10:11:35.792Z,8.20
2022-10-09T10:14:48.679Z,8.87
2022-10-09T10:18:06.452Z,8.60
2022-10-09T10:21:13.630Z,8.65
2022-10-09T10:24:22.962Z,7.80
2022-10-09T10:27:39.778Z,8.32
2022-10-09T10:30:44.534Z,8.53
2022-10-09T10:33:54.524Z,7.87
2022-10-09T10:37:20.198Z,10.00
2022-10-09T10:40:43.414Z,7.70
2022-10-09T10:44:03.957Z,6.93
2022-10-09T10:47:16.382Z,8.10
2022-10-09T10:50:27.593Z,7.57
2022-10-09T10:53:40.073Z,7.93
2022-10-09T10:56:48.708Z,7.50
2022-10-09T11:00:04.166Z,8.25
2022-10-09T11:03:25.728Z,7.97
2022-10-09T11:06:47.187Z,8.23
2022-10-09T11:10:15.976Z,7.60
2022-10-09T11:13:39.995Z,9.25
2022-10-09T11:17:15.278Z,9.38
2022-10-09T11:20:38.874Z,7.37
2022-10-09T11:23:51.594Z,6.50
2022-10-09T11:27:18.670Z,7.15
2022-10-09T11:30:22.408Z,6.25
2022-10-09T11:33:42.853Z,6.40
2022-10-09T11:36:46.603Z,6.53
2022-10-09T11:39:49.159Z,7.80
2022-10-09T11:43:17.423Z,7.28
2022-10-09T11:46:47.709Z,8.48
2022-10-09T11:50:06.967Z,7.72
2022-10-09T11:53:15.000Z,8.30
2022-10-09T11:56:24.498Z,8.57
2022-10-09T11:59:35.167Z,8.70
2022-10-09T12:02:38.496Z,8.13
2022-10-09T12:05:45.031Z,9.27
2022-10-09T12:08:58.473Z,8.63
2022-10-09T12:12:20.951Z,8.57
2022-10-09T12:15:35.886Z,8.68
2022-10-09T12:18:46.941Z,8.77
2022-10-09T12:22:10.854Z,8.90
2022-10-09T12:25:23.993Z,8.13
2022-10-09T12:28:39.411Z,8.47
2022-10-09T12:31:42.701Z,9.00
2022-10-09T12:34:51.124Z,9.18
2022-10-09T12:37:56.105Z,8.48
2022-10-09T12:41:03.149Z,8.20
2022-10-09T12:44:12.892Z,8.03
2022-10-09T12:47:23.385Z,7.82
2022-10-09T12:50:32.210Z,8.25
2022-10-09T12:53:47.084Z,8.38
2022-10-09T12:56:49.661Z,8.67
2022-10-09T12:59:52.659Z,7.67
2022-10-09T13:02:56.563Z,8.77
2022-10-09T13:06:00.154Z,8.57
2022-10-09T13:09:07.280Z,8.30
2022-10-09T13:12:24.334Z,8.67
2022-10-09T13:15:36.337Z,8.33
2022-10-09T13:18:39.171Z,9.00
2022-10-09T13:21:42.284Z,8.82
2022-10-09T13:24:45.305Z,8.88
2022-10-09T13:27:48.229Z,8.20
2022-10-09T13:30:51.965Z,8.27
2022-10-09T13:33:55.298Z,8.68
2022-10-09T13:36:58.737Z,8.77
2022-10-09T13:40:01.465Z,8.40
2022-10-09T13:43:05.755Z,9.17
2022-10-09T13:46:08.671Z,8.60
2022-10-09T13:49:11.794Z,8.48
2022-10-09T13:52:14.624Z,8.07
2022-10-09T13:55:17.887Z,7.63
2022-10-09T13:58:21.222Z,8.53
2022-10-09T14:01:24.111Z,8.70
2022-10-09T14:04:27.710Z,8.88
2022-10-09T14:07:30.998Z,8.25
2022-10-09T14:10:33.571Z,8.07
2022-10-09T14:13:38.003Z,8.40
2022-10-09T14:16:41.374Z,8.70
2022-10-09T14:19:44.809Z,8.90
2022-10-09T14:22:48.135Z,8.77
2022-10-09T14:25:51.603Z,8.10
2022-10-09T14:28:58.028Z,7.90
2022-10-09T14:32:00.597Z,8.27
2022-10-09T14:35:03.986Z,8.45
2022-10-09T14:38:07.464Z,8.85
2022-10-09T14:41:10.097Z,8.45
2022-10-09T14:44:13.046Z,9.17
2022-10-09T14:47:16.385Z,8.67
2022-10-09T14:50:19.420Z,9.10
2022-10-09T14:53:22.862Z,8.85
2022-10-09T14:56:27.372Z,8.77
2022-10-09T14:59:33.217Z,9.33
2022-10-09T15:02:35.670Z,9.40
2022-10-09T15:05:38.194Z,9.50
2022-10-09T15:08:42.483Z,8.93
2022-10-09T15:11:45.407Z,9.15
2022-10-09T15:14:49.233Z,9.63
2022-10-09T15:17:52.066Z,9.40
2022-10-09T15:20:57.870Z,9.60
2022-10-09T15:24:02.498Z,9.32
2022-10-09T15:27:05.918Z,9.80
2022-10-09T15:30:09.279Z,9.33
2022-10-09T15:33:11.877Z,9.63
2022-10-09T15:36:14.374Z,9.93
2022-10-09T15:39:17.545Z,9.15
2022-10-09T15:42:20.109Z,9.35
2022-10-09T15:45:23.459Z,9.37
2022-10-09T15:48:25.991Z,9.03
2022-10-09T15:51:31.618Z,10.70
2022-10-09T15:54:36.612Z,10.20
2022-10-09T15:57:39.171Z,10.02
2022-10-09T16:00:45.018Z,9.67
2022-10-09T16:03:48.936Z,9.87
2022-10-09T16:06:51.653Z,8.60
2022-10-09T16:09:54.205Z,7.90
2022-10-09T16:12:57.905Z,8.05
2022-10-09T16:16:04.076Z,7.83
2022-10-09T16:19:07.839Z,30.13
2022-10-09T16:22:10.358Z,7.38
2022-10-09T16:25:12.925Z,7.40
2022-10-09T16:28:15.470Z,7.13
2022-10-09T16:31:30.608Z,7.33
2022-10-09T16:34:33.087Z,6.83
2022-10-09T16:37:35.600Z,7.20
2022-10-09T16:41:02.992Z,6.40
2022-10-09T16:44:12.459Z,6.18
2022-10-09T16:47:14.911Z,5.90
2022-10-09T16:50:17.504Z,6.20
2022-10-09T16:53:20.636Z,5.90
2022-10-09T16:56:30.594Z,5.70
2022-10-09T16:59:33.353Z,5.88
2022-10-09T17:02:36.561Z,5.83
2022-10-09T17:05:39.327Z,5.57
2022-10-09T17:08:41.982Z,5.50
2022-10-09T17:11:44.623Z,6.13
2022-10-09T17:14:47.627Z,6.28
2022-10-09T17:17:51.361Z,6.10
2022-10-09T17:20:55.081Z,5.67
2022-10-09T17:24:00.434Z,6.22
2022-10-09T17:27:04.890Z,5.90
2022-10-09T17:30:08.191Z,6.18
2022-10-09T17:33:10.680Z,5.97
2022-10-09T17:36:22.808Z,5.57
2022-10-09T17:39:25.397Z,5.90
2022-10-09T17:42:28.567Z,5.50
2022-10-09T17:45:33.779Z,5.43
2022-10-09T17:48:44.409Z,5.30
2022-10-09T17:51:48.289Z,5.33
2022-10-09T17:54:50.863Z,5.50
2022-10-09T17:57:55.633Z,5.50
2022-10-09T18:00:58.410Z,5.25
2022-10-09T18:04:02.246Z,4.97
2022-10-09T18:07:05.437Z,5.00
2022-10-09T18:10:08.339Z,5.10
2022-10-09T18:13:11.650Z,5.05
2022-10-09T18:16:22.570Z,4.78
2022-10-09T18:19:25.346Z,4.90
2022-10-09T18:22:28.705Z,4.67
2022-10-09T18:25:31.592Z,5.45
2022-10-09T18:28:35.683Z,5.60
2022-10-09T18:31:38.731Z,5.25
2022-10-09T18:34:46.388Z,5.07
2022-10-09T18:37:49.054Z,5.80
2022-10-09T18:40:52.126Z,5.80
2022-10-09T18:43:55.384Z,5.35
2022-10-09T18:46:59.009Z,4.80
2022-10-09T18:50:08.359Z,4.87
2022-10-09T18:53:12.342Z,4.63
2022-10-09T18:56:17.757Z,5.10
2022-10-09T18:59:22.322Z,5.10
2022-10-09T19:02:27.038Z,5.40
2022-10-09T19:05:29.766Z,5.40
2022-10-09T19:08:35.165Z,4.63
2022-10-09T19:11:38.951Z,4.53
2022-10-09T19:14:41.508Z,4.40
2022-10-09T19:17:44.113Z,4.90
2022-10-09T19:20:48.743Z,4.90
2022-10-09T19:23:53.515Z,4.93
2022-10-09T19:26:56.078Z,4.13
2022-10-09T19:29:59.501Z,4.60
2022-10-09T19:33:02.029Z,4.40
2022-10-09T19:36:05.055Z,4.20
2022-10-09T19:39:08.599Z,4.03
2022-10-09T19:42:11.120Z,4.40
2022-10-09T19:45:14.412Z,4.63
2022-10-09T19:48:18.255Z,4.50
2022-10-09T19:51:24.226Z,4.47
2022-10-09T19:54:26.742Z,4.10
2022-10-09T19:57:29.709Z,4.63
2022-10-09T20:00:32.296Z,4.68
2022-10-09T20:03:35.257Z,4.50
2022-10-09T20:06:40.311Z,4.50
2022-10-09T20:09:43.280Z,4.70
2022-10-09T20:12:45.779Z,4.70
2022-10-09T20:15:48.268Z,4.45
2022-10-09T20:18:50.874Z,4.47
2022-10-09T20:21:53.307Z,4.37
2022-10-09T20:24:56.259Z,3.97
2022-10-09T20:27:59.917Z,4.13
2022-10-09T20:31:06.546Z,4.00
2022-10-09T20:34:09.016Z,3.80
2022-10-09T20:37:12.416Z,3.97
2022-10-09T20:40:15.296Z,3.43
2022-10-09T20:43:17.823Z,4.10
2022-10-09T20:46:23.722Z,4.00
2022-10-09T20:49:27.803Z,3.60
2022-10-09T20:52:31.950Z,3.63
2022-10-09T20:55:36.067Z,3.70
2022-10-09T20:58:39.231Z,3.72
2022-10-09T21:01:42.561Z,3.58
2022-10-09T21:04:45.929Z,3.30
2022-10-09T21:07:49.488Z,4.20
2022-10-09T21:10:52.203Z,3.80
2022-10-09T21:13:55.329Z,3.50
2022-10-09T21:16:57.795Z,3.80
2022-10-09T21:20:00.267Z,3.70
2022-10-09T21:23:02.997Z,3.13
2022-10-09T21:26:14.316Z,2.80
2022-10-09T21:29:16.822Z,3.40
2022-10-09T21:32:19.518Z,3.42
2022-10-09T21:35:22.891Z,3.35
2022-10-09T21:38:25.971Z,2.70
2022-10-09T21:41:28.520Z,2.83
2022-10-09T21:44:32.014Z,2.70
2022-10-09T21:47:34.580Z,2.95
2022-10-09T21:50:37.305Z,2.83
2022-10-09T21:53:40.376Z,3.23
2022-10-09T21:56:43.529Z,2.90
2022-10-09T21:59:47.516Z,3.00
2022-10-09T22:02:51.298Z,3.17
2022-10-09T22:05:54.057Z,3.00
2022-10-09T22:08:59.172Z,2.87
2022-10-09T22:12:01.696Z,3.17
2022-10-09T22:15:04.984Z,2.83
2022-10-09T22:18:07.833Z,3.00
2022-10-09T22:21:13.945Z,2.78
2022-10-09T22:24:16.940Z,2.70
2022-10-09T22:27:20.031Z,2.53
2022-10-09T22:30:22.598Z,2.67
2022-10-09T22:33:25.952Z,2.75
2022-10-09T22:36:32.191Z,2.10
2022-10-09T22:39:35.497Z,2.13
2022-10-09T22:42:40.541Z,2.00
2022-10-09T22:45:43.976Z,1.73
2022-10-09T22:48:46.812Z,2.00
2022-10-09T22:51:50.409Z,1.85
2022-10-09T22:54:53.667Z,2.10
2022-10-09T22:57:56.269Z,1.80
2022-10-09T23:01:03.450Z,2.30
2022-10-09T23:04:11.214Z,2.08
2022-10-09T23:07:13.887Z,2.15
2022-10-09T23:10:17.526Z,1.90
2022-10-09T23:13:21.972Z,2.47
2022-10-09T23:16:25.310Z,2.22
2022-10-09T23:19:28.641Z,2.30
2022-10-09T23:22:32.111Z,3.00
2022-10-09T23:25:40.646Z,2.30
2022-10-09T23:28:48.643Z,3.40
2022-10-09T23:31:53.302Z,2.60
2022-10-09T23:34:56.142Z,2.65
2022-10-09T23:37:58.817Z,2.58
2022-10-09T23:41:05.254Z,2.53
2022-10-09T23:44:07.737Z,2.80
2022-10-09T23:47:11.089Z,3.00
2022-10-09T23:50:15.070Z,3.03
2022-10-09T23:53:18.885Z,2.97
2022-10-09T23:56:24.570Z,3.10
2022-10-09T23:59:27.097Z,3.03
